North Kingstown, Rhode Island
Current Conditions -  °F | °C
As of 7:05 AM on Monday 24 Nov 2014 (Local Time) from KUUU Reporting Station
Light Rain Light Rain  
Wind Chill: 59°   Ceiling: 600
Heat Index: 59°   Visibility: 3mi
Dew Point: 56°   Wind: 21mph
Humidity: 90%   Direction: 150°SSE
Pressure: 29.86"   Gusts: 31mph
Location:  41.6°N, 71.42°W
Report Text: KUUU 241205Z AUTO 15018G27KT 3SM -RA BR BKN006 OVC013 15/13 A2986 RMK AO2 PK WND 15027/1202 PRESFR P0003 T01500133 $
Loading
Personal Weather Stations






























Interactive Weather Map New forecast layout! Learn more

10-Day Weather Forecast

Advertisements
Track Severe Weather on mobile